createdAt,value
2018-01-05T00:00:21.368Z,991.95
2018-01-05T00:01:21.361Z,991.95
2018-01-05T00:02:21.353Z,992.03
2018-01-05T00:03:21.342Z,992.01
2018-01-05T00:04:21.335Z,991.96
2018-01-05T00:05:21.330Z,991.95
2018-01-05T00:06:21.320Z,992.05
2018-01-05T00:07:21.318Z,992.01
2018-01-05T00:08:21.310Z,992.04
2018-01-05T00:09:21.303Z,992.12
2018-01-05T00:10:21.296Z,992.07
2018-01-05T00:11:21.287Z,992.07
2018-01-05T00:12:21.280Z,992.11
2018-01-05T00:13:21.273Z,991.99
2018-01-05T00:14:21.264Z,992.01
2018-01-05T00:15:21.254Z,992.02
2018-01-05T00:16:21.246Z,992.09
2018-01-05T00:17:21.240Z,992.04
2018-01-05T00:18:21.231Z,992.03
2018-01-05T00:19:21.222Z,991.98
2018-01-05T00:20:21.215Z,992.03
2018-01-05T00:21:21.208Z,992.08
2018-01-05T00:22:21.200Z,992.07
2018-01-05T00:23:21.198Z,992.04
2018-01-05T00:24:21.190Z,991.99
2018-01-05T00:25:21.184Z,992.07
2018-01-05T00:26:21.176Z,992.01
2018-01-05T00:27:21.168Z,992.05
2018-01-05T00:28:21.161Z,992.14
2018-01-05T00:29:21.153Z,992.16
2018-01-05T00:30:21.144Z,992.13
2018-01-05T00:31:21.133Z,992.03
2018-01-05T00:32:21.126Z,992.17
2018-01-05T00:33:21.117Z,992.09
2018-01-05T00:34:21.109Z,992.05
2018-01-05T00:35:21.103Z,991.98
2018-01-05T00:36:21.095Z,992.13
2018-01-05T00:37:21.088Z,992.22
2018-01-05T00:38:21.078Z,992.26
2018-01-05T00:39:21.076Z,992.05
2018-01-05T00:40:21.069Z,992.17
2018-01-05T00:41:21.065Z,992.14
2018-01-05T00:42:21.052Z,992.22
2018-01-05T00:43:21.049Z,992.17
2018-01-05T00:44:21.037Z,992.07
2018-01-05T00:45:21.031Z,992.14
2018-01-05T00:46:21.022Z,992.15
2018-01-05T00:47:21.010Z,992.14
2018-01-05T00:48:21.006Z,992.16
2018-01-05T00:49:20.995Z,992.18
2018-01-05T00:50:20.988Z,992.19
2018-01-05T00:51:20.980Z,992.28
2018-01-05T00:52:20.972Z,992.20
2018-01-05T00:53:20.965Z,992.18
2018-01-05T00:54:20.957Z,992.27
2018-01-05T00:55:20.955Z,992.24
2018-01-05T00:56:20.947Z,992.20
2018-01-05T00:57:20.940Z,992.28
2018-01-05T00:58:20.930Z,992.25
2018-01-05T00:59:20.923Z,992.40
2018-01-05T01:00:20.916Z,992.40
2018-01-05T01:01:20.909Z,992.40
2018-01-05T01:02:20.904Z,992.48
2018-01-05T01:03:20.889Z,992.49
2018-01-05T01:04:20.882Z,992.43
2018-01-05T01:05:20.876Z,992.41
2018-01-05T01:06:20.867Z,992.46
2018-01-05T01:07:20.864Z,992.52
2018-01-05T01:08:20.857Z,992.49
2018-01-05T01:09:20.849Z,992.52
2018-01-05T01:10:20.841Z,992.42
2018-01-05T01:11:20.831Z,992.43
2018-01-05T01:12:20.823Z,992.43
2018-01-05T01:13:20.815Z,992.41
2018-01-05T01:14:20.807Z,992.39
2018-01-05T01:15:20.800Z,992.35
2018-01-05T01:16:20.794Z,992.31
2018-01-05T01:17:20.794Z,992.29
2018-01-05T01:18:20.778Z,992.39
2018-01-05T01:19:20.774Z,992.34
2018-01-05T01:20:20.767Z,992.36
2018-01-05T01:21:20.760Z,992.34
2018-01-05T01:22:20.752Z,992.43
2018-01-05T01:23:20.744Z,992.42
2018-01-05T01:24:20.737Z,992.38
2018-01-05T01:25:20.730Z,992.39
2018-01-05T01:26:20.723Z,992.35
2018-01-05T01:27:20.711Z,992.28
2018-01-05T01:28:20.704Z,992.26
2018-01-05T01:29:20.697Z,992.26
2018-01-05T01:30:20.690Z,992.24
2018-01-05T01:31:20.682Z,992.30
2018-01-05T01:32:20.674Z,992.24
2018-01-05T01:33:20.668Z,992.22
2018-01-05T01:34:20.659Z,992.18
2018-01-05T01:35:20.657Z,992.25
2018-01-05T01:36:20.649Z,992.21
2018-01-05T01:37:20.644Z,992.32
2018-01-05T01:38:20.634Z,992.28
2018-01-05T01:39:20.628Z,992.25
2018-01-05T01:40:20.621Z,992.33
2018-01-05T01:41:20.613Z,992.31
2018-01-05T01:42:20.607Z,992.30
2018-01-05T01:43:20.594Z,992.33
2018-01-05T01:44:20.587Z,992.33
2018-01-05T01:45:20.580Z,992.33
2018-01-05T01:46:20.573Z,992.34
2018-01-05T01:47:20.565Z,992.34
2018-01-05T01:48:20.558Z,992.34
2018-01-05T01:49:20.556Z,992.26
2018-01-05T01:50:20.544Z,992.34
2018-01-05T01:51:20.540Z,992.25
2018-01-05T01:52:20.533Z,992.22
2018-01-05T01:53:20.527Z,992.17
2018-01-05T01:54:20.519Z,992.24
2018-01-05T01:55:20.513Z,992.20
2018-01-05T01:56:20.505Z,992.21
2018-01-05T01:57:20.498Z,992.16
2018-01-05T01:58:20.491Z,992.14
2018-01-05T01:59:20.480Z,992.21
2018-01-05T02:00:20.471Z,992.17
2018-01-05T02:01:20.465Z,992.18
2018-01-05T02:02:20.456Z,992.12
2018-01-05T02:03:20.451Z,992.13
2018-01-05T02:04:20.444Z,992.11
2018-01-05T02:05:20.437Z,992.07
2018-01-05T02:06:20.428Z,992.08
2018-01-05T02:07:20.426Z,992.13
2018-01-05T02:08:20.418Z,992.16
2018-01-05T02:09:20.411Z,992.11
2018-01-05T02:10:20.405Z,992.04
2018-01-05T02:11:20.393Z,992.08
2018-01-05T02:12:20.387Z,992.12
2018-01-05T02:13:20.384Z,992.16
2018-01-05T02:14:20.373Z,992.05
2018-01-05T02:15:20.373Z,992.12
2018-01-05T02:16:20.371Z,992.02
2018-01-05T02:17:20.356Z,992.02
2018-01-05T02:18:20.350Z,991.93
2018-01-05T02:19:20.342Z,991.92
2018-01-05T02:20:20.334Z,991.93
2018-01-05T02:21:20.327Z,991.86
2018-01-05T02:22:20.320Z,991.91
2018-01-05T02:23:20.309Z,991.91
2018-01-05T02:24:20.307Z,991.86
2018-01-05T02:25:20.297Z,991.82
2018-01-05T02:26:20.286Z,991.79
2018-01-05T02:27:20.280Z,991.74
2018-01-05T02:28:20.276Z,991.70
2018-01-05T02:29:20.266Z,991.60
2018-01-05T02:30:20.258Z,991.62
2018-01-05T02:31:20.256Z,991.59
2018-01-05T02:32:20.249Z,991.58
2018-01-05T02:33:20.242Z,991.61
2018-01-05T02:34:20.238Z,991.59
2018-01-05T02:35:20.227Z,991.56
2018-01-05T02:36:20.221Z,991.50
2018-01-05T02:37:20.214Z,991.47
2018-01-05T02:38:20.205Z,991.53
2018-01-05T02:39:20.196Z,991.48
2018-01-05T02:40:20.190Z,991.51
2018-01-05T02:41:20.181Z,991.43
2018-01-05T02:42:20.174Z,991.50
2018-01-05T02:43:20.166Z,991.56
2018-01-05T02:44:20.160Z,991.55
2018-01-05T02:45:20.153Z,991.61
2018-01-05T02:46:20.145Z,991.63
2018-01-05T02:47:20.142Z,991.61
2018-01-05T02:48:20.136Z,991.60
2018-01-05T02:49:20.129Z,991.69
2018-01-05T02:50:20.123Z,991.63
2018-01-05T02:51:20.114Z,991.61
2018-01-05T02:52:20.109Z,991.59
2018-01-05T02:53:20.102Z,991.58
2018-01-05T02:54:20.094Z,991.54
2018-01-05T02:55:20.082Z,991.54
2018-01-05T02:56:20.075Z,991.52
2018-01-05T02:57:20.068Z,991.55
2018-01-05T02:58:20.064Z,991.55
2018-01-05T02:59:20.054Z,991.53
2018-01-05T03:00:20.047Z,991.57
2018-01-05T03:01:20.040Z,991.67
2018-01-05T03:02:20.033Z,991.69
2018-01-05T03:03:20.030Z,991.67
2018-01-05T03:04:20.023Z,991.65
2018-01-05T03:05:20.018Z,991.67
2018-01-05T03:06:20.009Z,991.65
2018-01-05T03:07:20.002Z,991.60
2018-01-05T03:08:19.995Z,991.60
2018-01-05T03:09:19.989Z,991.60
2018-01-05T03:10:19.981Z,991.56
2018-01-05T03:11:19.969Z,991.57
2018-01-05T03:12:19.963Z,991.41
2018-01-05T03:13:19.956Z,991.38
2018-01-05T03:14:19.947Z,991.41
2018-01-05T03:15:19.946Z,991.36
2018-01-05T03:16:19.939Z,991.34
2018-01-05T03:17:19.932Z,991.29
2018-01-05T03:18:19.924Z,991.32
2018-01-05T03:19:19.913Z,991.30
2018-01-05T03:20:19.906Z,991.34
2018-01-05T03:21:19.900Z,991.39
2018-01-05T03:22:19.893Z,991.36
2018-01-05T03:23:19.891Z,991.37
2018-01-05T03:24:19.879Z,991.33
2018-01-05T03:25:19.871Z,991.21
2018-01-05T03:26:19.867Z,991.23
2018-01-05T03:27:19.861Z,991.20
2018-01-05T03:28:19.854Z,991.20
2018-01-05T03:29:19.848Z,991.25
2018-01-05T03:30:19.841Z,991.27
2018-01-05T03:31:19.834Z,991.24
2018-01-05T03:32:19.826Z,991.27
2018-01-05T03:33:19.819Z,991.26
2018-01-05T03:34:19.814Z,991.39
2018-01-05T03:35:19.801Z,991.31
2018-01-05T03:36:19.794Z,991.38
2018-01-05T03:37:19.787Z,991.36
2018-01-05T03:38:19.780Z,991.43
2018-01-05T03:39:19.773Z,991.44
2018-01-05T03:40:19.767Z,991.61
2018-01-05T03:41:19.759Z,991.57
2018-01-05T03:42:19.753Z,991.66
2018-01-05T03:43:19.749Z,991.57
2018-01-05T03:44:19.743Z,991.55
2018-01-05T03:45:19.736Z,991.51
2018-01-05T03:46:19.729Z,991.45
2018-01-05T03:47:19.721Z,991.37
2018-01-05T03:48:19.720Z,991.29
2018-01-05T03:49:19.708Z,991.31
2018-01-05T03:50:19.699Z,991.21
2018-01-05T03:51:19.689Z,991.19
2018-01-05T03:52:19.682Z,991.11
2018-01-05T03:53:19.676Z,991.14
2018-01-05T03:54:19.667Z,991.14
2018-01-05T03:55:19.660Z,991.22
2018-01-05T03:56:19.654Z,991.24
2018-01-05T03:57:19.647Z,991.12
2018-01-05T03:58:19.639Z,991.19
2018-01-05T03:59:19.637Z,991.23
2018-01-05T04:00:19.629Z,991.25
2018-01-05T04:01:19.623Z,991.20
2018-01-05T04:02:19.616Z,991.19
2018-01-05T04:03:19.608Z,991.13
2018-01-05T04:04:19.600Z,991.06
2018-01-05T04:05:19.593Z,990.98
2018-01-05T04:06:19.587Z,990.96
2018-01-05T04:07:19.576Z,990.88
2018-01-05T04:08:19.569Z,990.90
2018-01-05T04:09:19.562Z,990.95
2018-01-05T04:10:19.554Z,990.98
2018-01-05T04:11:19.545Z,990.95
2018-01-05T04:12:19.539Z,990.92
2018-01-05T04:13:19.531Z,990.91
2018-01-05T04:14:19.524Z,990.98
2018-01-05T04:15:19.522Z,990.99
2018-01-05T04:16:19.517Z,991.03
2018-01-05T04:17:19.507Z,990.95
2018-01-05T04:18:19.499Z,990.99
2018-01-05T04:19:19.490Z,990.92
2018-01-05T04:20:19.484Z,990.93
2018-01-05T04:21:19.476Z,990.89
2018-01-05T04:22:19.469Z,990.94
2018-01-05T04:23:19.456Z,990.92
2018-01-05T04:24:19.450Z,990.85
2018-01-05T04:25:19.444Z,990.90
2018-01-05T04:26:19.439Z,990.91
2018-01-05T04:27:19.426Z,990.93
2018-01-05T04:28:19.419Z,990.89
2018-01-05T04:29:19.411Z,990.87
2018-01-05T04:30:19.403Z,990.84
2018-01-05T04:31:19.400Z,990.78
2018-01-05T04:32:19.396Z,990.77
2018-01-05T04:33:19.385Z,990.76
2018-01-05T04:34:19.378Z,990.75
2018-01-05T04:35:19.369Z,990.76
2018-01-05T04:36:19.362Z,990.77
2018-01-05T04:37:19.353Z,990.74
2018-01-05T04:38:19.346Z,990.76
2018-01-05T04:39:19.335Z,990.74
2018-01-05T04:40:19.327Z,990.74
2018-01-05T04:41:19.319Z,990.79
2018-01-05T04:42:19.312Z,990.76
2018-01-05T04:43:19.303Z,990.66
2018-01-05T04:44:19.296Z,990.73
2018-01-05T04:45:19.288Z,990.63
2018-01-05T04:46:19.280Z,990.64
2018-01-05T04:47:19.276Z,990.64
2018-01-05T04:48:19.275Z,990.63
2018-01-05T04:49:19.262Z,990.64
2018-01-05T04:50:19.257Z,990.64
2018-01-05T04:51:19.246Z,990.61
2018-01-05T04:52:19.238Z,990.65
2018-01-05T04:53:19.231Z,990.58
2018-01-05T04:54:19.222Z,990.59
2018-01-05T04:55:19.211Z,990.67
2018-01-05T04:56:19.205Z,990.70
2018-01-05T04:57:19.196Z,990.62
2018-01-05T04:58:19.188Z,990.63
2018-01-05T04:59:19.180Z,990.69
2018-01-05T05:00:19.176Z,990.64
2018-01-05T05:01:19.166Z,990.64
2018-01-05T05:02:19.159Z,990.60
2018-01-05T05:03:19.156Z,990.65
2018-01-05T05:04:19.148Z,990.62
2018-01-05T05:05:19.139Z,990.57
2018-01-05T05:06:19.131Z,990.56
2018-01-05T05:07:19.123Z,990.61
2018-01-05T05:08:19.116Z,990.60
2018-01-05T05:09:19.109Z,990.65
2018-01-05T05:10:19.100Z,990.64
2018-01-05T05:11:19.089Z,990.60
2018-01-05T05:12:19.082Z,990.59
2018-01-05T05:13:19.074Z,990.60
2018-01-05T05:14:19.065Z,990.56
2018-01-05T05:15:19.058Z,990.56
2018-01-05T05:16:19.050Z,990.56
2018-01-05T05:17:19.043Z,990.64
2018-01-05T05:18:19.035Z,990.63
2018-01-05T05:19:19.032Z,990.66
2018-01-05T05:20:19.024Z,990.60
2018-01-05T05:21:19.017Z,990.68
2018-01-05T05:22:19.007Z,990.68
2018-01-05T05:23:18.996Z,990.69
2018-01-05T05:24:18.989Z,990.66
2018-01-05T05:25:18.981Z,990.77
2018-01-05T05:26:18.972Z,990.70
2018-01-05T05:27:18.969Z,990.81
2018-01-05T05:28:18.962Z,990.74
2018-01-05T05:29:18.955Z,990.73
2018-01-05T05:30:18.946Z,990.73
2018-01-05T05:31:18.939Z,990.81
2018-01-05T05:32:18.931Z,990.80
2018-01-05T05:33:18.925Z,990.82
2018-01-05T05:34:18.915Z,990.85
2018-01-05T05:35:18.905Z,990.84
2018-01-05T05:36:18.898Z,990.88
2018-01-05T05:37:18.889Z,990.85
2018-01-05T05:38:18.880Z,990.83
2018-01-05T05:39:18.876Z,990.83
2018-01-05T05:40:18.866Z,990.81
2018-01-05T05:41:18.861Z,990.92
2018-01-05T05:42:18.850Z,990.99
2018-01-05T05:43:18.847Z,990.93
2018-01-05T05:44:18.841Z,990.87
2018-01-05T05:45:18.832Z,990.96
2018-01-05T05:46:18.824Z,990.99
2018-01-05T05:47:18.817Z,990.95
2018-01-05T05:48:18.810Z,990.90
2018-01-05T05:49:18.802Z,990.98
2018-01-05T05:50:18.793Z,990.94
2018-01-05T05:51:18.782Z,991.03
2018-01-05T05:52:18.775Z,990.98
2018-01-05T05:53:18.768Z,990.95
2018-01-05T05:54:18.760Z,991.04
2018-01-05T05:55:18.752Z,991.04
2018-01-05T05:56:18.747Z,990.96
2018-01-05T05:57:18.739Z,991.02
2018-01-05T05:58:18.730Z,991.14
2018-01-05T05:59:18.727Z,990.99
2018-01-05T06:00:18.721Z,991.04
2018-01-05T06:01:18.713Z,991.10
2018-01-05T06:02:18.706Z,991.07
2018-01-05T06:03:18.697Z,991.11
2018-01-05T06:04:18.690Z,991.12
2018-01-05T06:05:18.683Z,991.15
2018-01-05T06:06:18.676Z,991.29
2018-01-05T06:07:18.664Z,991.28
2018-01-05T06:08:18.657Z,991.23
2018-01-05T06:09:18.650Z,991.29
2018-01-05T06:10:18.642Z,991.33
2018-01-05T06:11:18.635Z,991.25
2018-01-05T06:12:18.628Z,991.25
2018-01-05T06:13:18.621Z,991.26
2018-01-05T06:14:18.612Z,991.24
2018-01-05T06:15:18.609Z,991.27
2018-01-05T06:16:18.603Z,991.31
2018-01-05T06:17:18.596Z,991.37
2018-01-05T06:18:18.588Z,991.27
2018-01-05T06:19:18.581Z,991.29
2018-01-05T06:20:18.575Z,991.28
2018-01-05T06:21:18.567Z,991.34
2018-01-05T06:22:18.560Z,991.30
2018-01-05T06:23:18.549Z,991.35
2018-01-05T06:24:18.542Z,991.29
2018-01-05T06:25:18.535Z,991.37
2018-01-05T06:26:18.526Z,991.43
2018-01-05T06:27:18.524Z,991.38
2018-01-05T06:28:18.517Z,991.45
2018-01-05T06:29:18.512Z,991.50
2018-01-05T06:30:18.503Z,991.49
2018-01-05T06:31:18.492Z,991.44
2018-01-05T06:32:18.485Z,991.52
2018-01-05T06:33:18.478Z,991.59
2018-01-05T06:34:18.470Z,991.55
2018-01-05T06:35:18.465Z,991.67
2018-01-05T06:36:18.457Z,991.59
2018-01-05T06:37:18.451Z,991.57
2018-01-05T06:38:18.443Z,991.59
2018-01-05T06:39:18.442Z,991.50
2018-01-05T06:40:18.434Z,991.45
2018-01-05T06:41:18.427Z,991.45
2018-01-05T06:42:18.419Z,991.39
2018-01-05T06:43:18.415Z,991.51
2018-01-05T06:44:18.406Z,991.47
2018-01-05T06:45:18.400Z,991.52
2018-01-05T06:46:18.392Z,991.54
2018-01-05T06:47:18.382Z,991.59
2018-01-05T06:48:18.375Z,991.60
2018-01-05T06:49:18.369Z,991.63
2018-01-05T06:50:18.361Z,991.58
2018-01-05T06:51:18.354Z,991.66
2018-01-05T06:52:18.348Z,991.66
2018-01-05T06:53:18.343Z,991.71
2018-01-05T06:54:18.334Z,991.68
2018-01-05T06:55:18.375Z,991.76
2018-01-05T06:56:18.325Z,991.72
2018-01-05T06:57:18.318Z,991.72
2018-01-05T06:58:18.310Z,991.76
2018-01-05T06:59:18.305Z,991.76
2018-01-05T07:00:18.298Z,991.75
2018-01-05T07:01:18.293Z,991.75
2018-01-05T07:02:18.284Z,991.81
2018-01-05T07:03:18.274Z,991.79
2018-01-05T07:04:18.266Z,991.72
2018-01-05T07:05:18.261Z,991.72
2018-01-05T07:06:18.252Z,991.69
2018-01-05T07:07:18.250Z,991.73
2018-01-05T07:08:18.240Z,991.71
2018-01-05T07:09:18.233Z,991.69
2018-01-05T07:10:18.227Z,991.68
2018-01-05T07:11:18.224Z,991.67
2018-01-05T07:12:18.217Z,991.70
2018-01-05T07:13:18.214Z,991.68
2018-01-05T07:14:18.204Z,991.69
2018-01-05T07:15:18.196Z,991.72
2018-01-05T07:16:18.190Z,991.75
2018-01-05T07:17:18.186Z,991.71
2018-01-05T07:18:18.176Z,991.70
2018-01-05T07:19:18.166Z,991.74
2018-01-05T07:20:18.171Z,991.72
2018-01-05T07:21:18.152Z,991.71
2018-01-05T07:22:18.146Z,991.75
2018-01-05T07:23:18.139Z,991.71
2018-01-05T07:24:18.132Z,991.78
2018-01-05T07:25:18.125Z,991.76
2018-01-05T07:26:18.118Z,991.89
2018-01-05T07:27:18.116Z,991.93
2018-01-05T07:28:18.111Z,991.87
2018-01-05T07:29:18.103Z,991.95
2018-01-05T07:30:18.098Z,992.01
2018-01-05T07:31:18.086Z,991.98
2018-01-05T07:32:18.082Z,992.08
2018-01-05T07:33:18.077Z,992.06
2018-01-05T07:34:18.064Z,992.06
2018-01-05T07:35:18.064Z,992.11
2018-01-05T07:36:18.056Z,992.11
2018-01-05T07:37:18.048Z,992.11
2018-01-05T07:38:18.041Z,992.19
2018-01-05T07:39:18.034Z,992.17
2018-01-05T07:40:18.028Z,992.12
2018-01-05T07:41:18.022Z,992.15
2018-01-05T07:42:18.013Z,992.17
2018-01-05T07:43:18.004Z,992.25
2018-01-05T07:44:17.996Z,992.20
2018-01-05T07:45:17.988Z,992.19
2018-01-05T07:46:17.981Z,992.20
2018-01-05T07:47:17.974Z,992.17
2018-01-05T07:48:17.968Z,992.25
2018-01-05T07:49:17.960Z,992.24
2018-01-05T07:50:18.000Z,992.25
2018-01-05T07:51:17.951Z,992.30
2018-01-05T07:52:17.943Z,992.31
2018-01-05T07:53:17.935Z,992.31
2018-01-05T07:54:17.928Z,992.32
2018-01-05T07:55:17.921Z,992.39
2018-01-05T07:56:17.914Z,992.38
2018-01-05T07:57:17.906Z,992.33
2018-01-05T07:58:17.899Z,992.36
2018-01-05T07:59:17.888Z,992.39
2018-01-05T08:00:17.881Z,992.43
2018-01-05T08:01:17.873Z,992.50
2018-01-05T08:02:17.866Z,992.47
2018-01-05T08:03:17.859Z,992.54
2018-01-05T08:04:17.853Z,992.57
2018-01-05T08:05:17.845Z,992.56
2018-01-05T08:06:17.838Z,992.56
2018-01-05T08:07:17.835Z,992.67
2018-01-05T08:08:17.829Z,992.66
2018-01-05T08:09:17.824Z,992.64
2018-01-05T08:10:17.813Z,992.66
2018-01-05T08:11:17.807Z,992.72
2018-01-05T08:12:17.800Z,992.75
2018-01-05T08:13:17.796Z,992.75
2018-01-05T08:14:17.786Z,992.77
2018-01-05T08:15:17.774Z,992.73
2018-01-05T08:16:17.768Z,992.78
2018-01-05T08:17:17.764Z,992.72
2018-01-05T08:18:17.753Z,992.71
2018-01-05T08:19:17.747Z,992.74
2018-01-05T08:20:17.740Z,992.76
2018-01-05T08:21:17.733Z,992.77
2018-01-05T08:22:17.725Z,992.83
2018-01-05T08:23:17.725Z,992.87
2018-01-05T08:24:17.717Z,992.88
2018-01-05T08:25:17.711Z,993.01
2018-01-05T08:26:17.706Z,993.01
2018-01-05T08:27:17.703Z,993.03
2018-01-05T08:28:17.689Z,992.92
2018-01-05T08:29:17.683Z,992.97
2018-01-05T08:30:17.679Z,993.00
2018-01-05T08:31:17.666Z,992.91
2018-01-05T08:32:17.658Z,992.92
2018-01-05T08:33:17.652Z,993.00
2018-01-05T08:34:17.644Z,993.06
2018-01-05T08:35:17.642Z,993.07
2018-01-05T08:36:17.636Z,993.07
2018-01-05T08:37:17.629Z,993.00
2018-01-05T08:38:17.623Z,993.02
2018-01-05T08:39:17.612Z,993.01
2018-01-05T08:40:17.605Z,993.10
2018-01-05T08:41:17.601Z,993.09
2018-01-05T08:42:17.591Z,993.04
2018-01-05T08:43:17.585Z,993.10
2018-01-05T08:44:17.578Z,993.11
2018-01-05T08:45:17.573Z,993.14
2018-01-05T08:46:17.567Z,993.18
2018-01-05T08:47:17.563Z,993.25
2018-01-05T08:48:17.557Z,993.34
2018-01-05T08:49:17.551Z,993.34
2018-01-05T08:50:17.545Z,993.32
2018-01-05T08:51:17.538Z,993.28
2018-01-05T08:52:17.533Z,993.32
2018-01-05T08:53:17.526Z,993.28
2018-01-05T08:54:17.519Z,993.30
2018-01-05T08:55:17.508Z,993.21
2018-01-05T08:56:17.502Z,993.20
2018-01-05T08:57:17.496Z,993.11
2018-01-05T08:58:17.494Z,993.16
2018-01-05T08:59:17.485Z,993.14
2018-01-05T09:00:17.477Z,993.19
2018-01-05T09:01:17.471Z,993.15
2018-01-05T09:02:17.473Z,993.14
2018-01-05T09:03:17.466Z,993.16
2018-01-05T09:04:17.459Z,993.19
2018-01-05T09:05:17.451Z,993.19
2018-01-05T09:06:17.444Z,993.23
2018-01-05T09:07:17.439Z,993.18
2018-01-05T09:08:17.434Z,993.18
2018-01-05T09:09:17.428Z,993.17
2018-01-05T09:10:17.420Z,993.12
2018-01-05T09:11:17.416Z,993.25
2018-01-05T09:12:17.405Z,993.33
2018-01-05T09:13:17.399Z,993.33
2018-01-05T09:14:17.392Z,993.33
2018-01-05T09:15:17.389Z,993.40
2018-01-05T09:16:17.381Z,993.35
2018-01-05T09:17:17.375Z,993.30
2018-01-05T09:18:17.369Z,993.32
2018-01-05T09:19:17.368Z,993.33
2018-01-05T09:20:17.362Z,993.35
2018-01-05T09:21:17.356Z,993.39
2018-01-05T09:22:17.350Z,993.42
2018-01-05T09:23:17.347Z,993.41
2018-01-05T09:24:17.340Z,993.41
2018-01-05T09:25:17.334Z,993.38
2018-01-05T09:26:17.330Z,993.41
2018-01-05T09:27:17.319Z,993.52
2018-01-05T09:28:17.315Z,993.54
2018-01-05T09:29:17.308Z,993.53
2018-01-05T09:30:17.303Z,993.47
2018-01-05T09:31:17.298Z,993.47
2018-01-05T09:32:17.295Z,993.46
2018-01-05T09:33:17.288Z,993.45
2018-01-05T09:34:17.282Z,993.41
2018-01-05T09:35:17.280Z,993.43
2018-01-05T09:36:17.276Z,993.38
2018-01-05T09:37:17.271Z,993.45
2018-01-05T09:38:17.265Z,993.41
2018-01-05T09:39:17.256Z,993.47
2018-01-05T09:40:17.251Z,993.45
2018-01-05T09:41:17.247Z,993.46
2018-01-05T09:42:17.241Z,993.44
2018-01-05T09:43:17.240Z,993.41
2018-01-05T09:44:17.237Z,993.43
2018-01-05T09:45:17.246Z,993.39
2018-01-05T09:46:17.228Z,993.52
2018-01-05T09:47:17.222Z,993.52
2018-01-05T09:48:17.216Z,993.49
2018-01-05T09:49:17.211Z,993.48
2018-01-05T09:50:17.211Z,993.42
2018-01-05T09:51:17.199Z,993.44
2018-01-05T09:52:17.193Z,993.43
2018-01-05T09:53:17.189Z,993.45
2018-01-05T09:54:17.183Z,993.40
2018-01-05T09:55:17.180Z,993.43
2018-01-05T09:56:17.174Z,993.46
2018-01-05T09:57:17.171Z,993.49
2018-01-05T09:58:17.165Z,993.45
2018-01-05T09:59:17.165Z,993.54
2018-01-05T10:00:17.160Z,993.51
2018-01-05T10:01:17.156Z,993.47
2018-01-05T10:02:17.150Z,993.50
2018-01-05T10:03:17.153Z,993.54
2018-01-05T10:04:17.150Z,993.55
2018-01-05T10:05:17.136Z,993.55
2018-01-05T10:06:17.131Z,993.57
2018-01-05T10:07:17.122Z,993.55
2018-01-05T10:08:17.118Z,993.49
2018-01-05T10:09:17.140Z,993.47
2018-01-05T10:10:17.108Z,993.49
2018-01-05T10:11:17.102Z,993.56
2018-01-05T10:12:17.098Z,993.65
2018-01-05T10:13:17.099Z,993.59
2018-01-05T10:14:17.089Z,993.64
2018-01-05T10:15:17.087Z,993.62
2018-01-05T10:16:17.082Z,993.69
2018-01-05T10:17:17.079Z,993.64
2018-01-05T10:18:17.118Z,993.65
2018-01-05T10:19:17.068Z,993.74
2018-01-05T10:20:17.063Z,993.75
2018-01-05T10:21:17.061Z,993.73
2018-01-05T10:22:17.054Z,993.74
2018-01-05T10:23:17.043Z,993.80
2018-01-05T10:24:17.040Z,993.82
2018-01-05T10:25:17.035Z,993.82
2018-01-05T10:26:17.029Z,993.80
2018-01-05T10:27:17.024Z,993.81
2018-01-05T10:28:17.019Z,993.81
2018-01-05T10:29:17.014Z,993.70
2018-01-05T10:30:17.011Z,993.75
2018-01-05T10:31:17.010Z,993.76
2018-01-05T10:32:17.004Z,993.70
2018-01-05T10:33:16.999Z,993.74
2018-01-05T10:34:16.994Z,993.81
2018-01-05T10:35:16.991Z,993.76
2018-01-05T10:36:16.985Z,993.80
2018-01-05T10:37:16.980Z,993.76
2018-01-05T10:38:16.995Z,993.76
2018-01-05T10:39:16.967Z,993.73
2018-01-05T10:40:16.961Z,993.70
2018-01-05T10:41:16.959Z,993.73
2018-01-05T10:42:16.954Z,993.69
2018-01-05T10:43:16.950Z,993.74
2018-01-05T10:44:16.945Z,993.77
2018-01-05T10:45:16.941Z,993.76
2018-01-05T10:46:16.934Z,993.74
2018-01-05T10:47:16.927Z,993.74
2018-01-05T10:48:16.921Z,993.82
2018-01-05T10:49:16.916Z,993.79
2018-01-05T10:50:16.911Z,993.79
2018-01-05T10:51:16.907Z,993.72
2018-01-05T10:52:16.901Z,993.67
2018-01-05T10:53:16.896Z,993.65
2018-01-05T10:54:16.890Z,993.70
2018-01-05T10:55:16.892Z,993.75
2018-01-05T10:56:16.888Z,993.79
2018-01-05T10:57:16.882Z,993.80
2018-01-05T10:58:16.876Z,993.75
2018-01-05T10:59:16.872Z,993.81
2018-01-05T11:00:16.866Z,993.80
2018-01-05T11:01:16.862Z,993.80
2018-01-05T11:02:16.856Z,993.78
2018-01-05T11:03:16.848Z,993.82
2018-01-05T11:04:16.843Z,993.78
2018-01-05T11:05:16.839Z,993.75
2018-01-05T11:06:16.833Z,993.68
2018-01-05T11:07:16.827Z,993.67
2018-01-05T11:08:16.824Z,993.63
2018-01-05T11:09:16.818Z,993.61
2018-01-05T11:10:16.816Z,993.66
2018-01-05T11:11:16.816Z,993.67
2018-01-05T11:12:16.808Z,993.71
2018-01-05T11:13:16.803Z,993.77
2018-01-05T11:14:16.798Z,993.79
2018-01-05T11:15:16.793Z,993.81
2018-01-05T11:16:16.789Z,993.77
2018-01-05T11:17:16.785Z,993.75
2018-01-05T11:18:16.778Z,993.70
2018-01-05T11:19:16.769Z,993.73
2018-01-05T11:20:16.767Z,993.77
2018-01-05T11:21:16.760Z,993.78
2018-01-05T11:22:16.758Z,993.76
2018-01-05T11:23:16.752Z,993.76
2018-01-05T11:24:16.746Z,993.75
2018-01-05T11:25:16.742Z,993.72
2018-01-05T11:26:16.738Z,993.72
2018-01-05T11:27:16.737Z,993.73
2018-01-05T11:28:16.732Z,993.72
2018-01-05T11:29:16.728Z,993.70
2018-01-05T11:30:16.723Z,993.69
2018-01-05T11:31:16.718Z,993.74
2018-01-05T11:32:16.715Z,993.75
2018-01-05T11:33:16.709Z,993.74
2018-01-05T11:34:16.704Z,993.74
2018-01-05T11:35:16.696Z,993.70
2018-01-05T11:36:16.692Z,993.72
2018-01-05T11:37:16.688Z,993.70
2018-01-05T11:38:16.684Z,993.68
2018-01-05T11:39:16.681Z,993.73
2018-01-05T11:40:16.674Z,993.71
2018-01-05T11:41:16.670Z,993.71
2018-01-05T11:42:16.665Z,993.67
2018-01-05T11:43:16.666Z,993.70
2018-01-05T11:44:16.661Z,993.70
2018-01-05T11:45:16.656Z,993.73
2018-01-05T11:46:16.652Z,993.67
2018-01-05T11:47:16.643Z,993.66
2018-01-05T11:48:16.639Z,993.63
2018-01-05T11:49:16.635Z,993.65
2018-01-05T11:50:16.631Z,993.63
2018-01-05T11:51:16.632Z,993.67
2018-01-05T11:52:16.626Z,993.64
2018-01-05T11:53:16.622Z,993.66
2018-01-05T11:54:16.616Z,993.66
2018-01-05T11:55:16.612Z,993.67
2018-01-05T11:56:16.612Z,993.67
2018-01-05T11:57:16.603Z,993.73
2018-01-05T11:58:16.599Z,993.74
2018-01-05T11:59:16.589Z,993.78
2018-01-05T12:00:16.585Z,993.83
2018-01-05T12:01:16.581Z,993.78
2018-01-05T12:02:16.577Z,993.83
2018-01-05T12:03:16.571Z,993.83
2018-01-05T12:04:16.568Z,993.79
2018-01-05T12:05:16.564Z,993.80
2018-01-05T12:06:16.557Z,993.79
2018-01-05T12:07:16.558Z,993.79
2018-01-05T12:08:16.553Z,993.79
2018-01-05T12:09:16.548Z,993.84
2018-01-05T12:10:16.545Z,993.84
2018-01-05T12:11:16.540Z,993.83
2018-01-05T12:12:16.536Z,993.72
2018-01-05T12:13:16.531Z,993.66
2018-01-05T12:14:16.526Z,993.72
2018-01-05T12:15:16.517Z,993.71
2018-01-05T12:16:16.513Z,993.73
2018-01-05T12:17:16.509Z,993.68
2018-01-05T12:18:16.503Z,993.66
2018-01-05T12:19:16.500Z,993.61
2018-01-05T12:20:16.496Z,993.60
2018-01-05T12:21:16.493Z,993.63
2018-01-05T12:22:16.486Z,993.67
2018-01-05T12:23:16.486Z,993.65
2018-01-05T12:24:16.482Z,993.62
2018-01-05T12:25:16.478Z,993.62
2018-01-05T12:26:16.474Z,993.54
2018-01-05T12:27:16.469Z,993.56
2018-01-05T12:28:16.464Z,993.46